Latest Weather Observations for Casey*

IDT60801

Issued at 6:35 pm EST Monday 21 April 2014 (issued every 30 minutes, with the page automatically refreshed every 10 minutes)

About weather observations | Map of weather stations | Latest weather observations for ANT | Other Formats
Station Details ID: 300017 Name: CASEY Lat: -66.28 Lon: 110.52 Height: 40.0 m
Data from the previous 72 hours. | See also: Recent months at Casey*
Date/Time
EST
Temp
°C
App
Temp
°C
Dew
Point
Rel
Hum
%
Delta-T
°C
Wind Press
QNH
hPa
Press
MSL
hPa
Rain
since 9 am
mm
Dir
 
Spd
km/h
Gust
km/h
Spd
kts
Gust
kts
21/06:30pm -7.0 -10.6 -13.0 62 - NNE 2 7 1 4 982.8 - -
21/06:00pm -6.7 -11.3 -13.1 60 - ESE 7 9 4 5 982.2 - -
21/05:30pm -7.2 -12.9 -13.0 63 - E 13 17 7 9 981.6 - -
21/05:00pm -7.0 -12.7 -13.4 60 - SE 13 15 7 8 981.1 - -
21/04:30pm -7.4 -13.5 -13.0 64 - SE 15 15 8 8 980.4 - -
21/04:00pm -7.7 -13.4 -12.2 70 - SSE 13 15 7 8 980.0 980.5 -
21/03:30pm -6.9 -12.6 -12.2 66 - SE 13 15 7 8 979.7 - -
21/03:00pm -6.9 -12.2 -12.3 65 - SSE 11 13 6 7 979.4 - -
21/02:30pm -7.4 -12.4 -12.8 65 - SSE 9 11 5 6 979.0 - -
21/02:00pm -7.2 -11.8 -13.2 62 - SE 7 11 4 6 978.6 - -
21/01:30pm -8.1 -12.7 -13.1 67 - S 7 9 4 5 978.3 - -
21/01:00pm -8.4 -13.3 -12.7 71 - S 9 11 5 6 978.1 978.6 -
21/12:30pm -8.4 -13.7 -12.5 72 - SW 11 13 6 7 977.8 - -
21/12:00pm -6.7 -11.3 -13.3 59 - NNW 7 11 4 6 977.5 - -
21/11:30am -5.9 -12.4 -13.2 56 - E 17 20 9 11 977.0 - -
21/11:00am -6.4 -16.3 -12.9 60 - E 35 39 19 21 976.4 - -
21/10:30am -7.5 -18.2 -13.1 64 - E 39 43 21 23 976.1 - -
21/10:00am -7.7 -17.6 -13.3 64 - E 35 44 19 24 975.9 976.3 -
21/09:30am -8.4 -17.9 -13.4 67 - E 33 41 18 22 975.6 - -
21/09:00am -8.5 -16.7 -13.9 65 - ESE 26 32 14 17 975.6 - -
21/08:30am -7.5 -16.9 -13.9 60 - ESE 32 35 17 19 975.2 - -
21/08:00am -7.5 -17.1 -14.3 58 - ESE 33 35 18 19 975.0 - -
21/07:30am -8.2 -17.2 -14.4 61 - ESE 30 33 16 18 974.8 - -
21/07:00am -8.4 -18.0 -14.4 62 - ESE 33 37 18 20 974.6 975.0 -
21/06:30am -7.8 -16.9 -15.0 56 - SE 30 33 16 18 974.4 - -
21/06:00am -7.7 -16.8 -14.7 57 - SE 30 35 16 19 974.2 - -
21/05:30am -8.2 -18.2 -14.8 59 - ESE 35 39 19 21 973.8 - -
21/05:00am -8.6 -19.0 -14.9 60 - ESE 37 41 20 22 973.6 - -
21/04:30am -9.1 -19.9 -15.0 62 - ESE 39 43 21 23 973.5 - -
21/04:00am -9.1 -19.1 -15.0 62 - ESE 35 41 19 22 973.3 973.7 -
21/03:30am -9.4 -19.4 -15.3 62 - ESE 35 37 19 20 973.3 - -
21/03:00am -10.2 -20.7 -16.9 58 - ESE 37 39 20 21 973.3 - -
21/02:30am -10.2 -20.3 -17.3 56 - ESE 35 39 19 21 973.3 - -
21/02:00am -10.6 -20.2 -17.2 58 - ESE 32 33 17 18 973.2 - -
21/01:30am -11.4 -21.0 -17.8 59 - ESE 32 33 17 18 973.2 - -
21/01:00am -10.9 -20.4 -16.9 61 - ESE 32 33 17 18 973.3 973.7 -
21/12:30am -10.4 -18.8 -15.9 64 - E 26 28 14 15 973.5 - -
21/12:00am -11.2 -19.9 -16.1 67 - E 28 30 15 16 973.4 - -
 
Date/Time
EST
Temp
°C
App
Temp
°C
Dew
Point
Rel
Hum
%
Delta-T
°C
Wind Press
QNH
hPa
Press
MSL
hPa
Rain
since 9 am
mm
Dir
 
Spd
km/h
Gust
km/h
Spd
kts
Gust
kts
20/11:30pm -10.9 -20.0 -16.0 66 - E 30 35 16 19 973.4 - -
20/11:00pm -12.0 -20.8 -16.5 69 - ESE 28 30 15 16 973.3 - -
20/10:30pm -11.3 -19.3 -15.8 69 - E 24 28 13 15 973.3 - -
20/10:00pm -11.6 -20.4 -16.3 68 - E 28 30 15 16 973.2 973.6 -
20/09:30pm -11.3 -21.0 -15.8 69 - E 33 35 18 19 973.1 - -
20/09:00pm -9.4 -18.1 -14.5 66 - E 28 32 15 17 973.1 - -
20/08:30pm -8.3 -17.9 -13.7 65 - E 33 37 18 20 973.2 - -
20/08:00pm -8.5 -20.0 -13.9 65 - E 43 48 23 26 973.0 - -
20/07:30pm -9.7 -20.5 -14.5 68 - E 39 43 21 23 973.1 - -
20/07:00pm -11.3 -22.2 -16.9 63 - E 39 48 21 26 973.1 973.5 -
20/06:30pm -10.3 -20.3 -14.7 70 - E 35 37 19 20 973.5 - -
20/06:00pm -10.1 -20.1 -14.5 70 - E 35 39 19 21 973.8 - -
20/05:30pm -10.0 -20.8 -14.8 68 - E 39 43 21 23 973.9 - -
20/05:00pm -10.2 -21.0 -15.1 67 - E 39 46 21 25 974.3 - -
20/04:46pm -10.7 -21.2 -16.2 64 - E 37 44 20 24 974.5 - -
20/04:30pm -11.0 -18.3 -17.2 60 - ESE 20 26 11 14 975.0 - -
20/04:11pm -10.3 -19.8 -16.5 60 - ESE 32 35 17 19 975.1 - -
20/04:00pm -9.5 -20.3 -16.2 58 - ENE 39 44 21 24 974.8 975.2 -
20/03:30pm -8.9 -20.6 -15.2 60 - ENE 44 50 24 27 975.0 - -
20/03:00pm -8.9 -21.0 -15.2 60 - ENE 46 50 25 27 975.3 - -
20/02:30pm -10.4 -22.6 -15.9 64 - E 46 54 25 29 975.6 - -
20/02:00pm -9.0 -21.1 -14.7 63 - ENE 46 52 25 28 975.7 - -
20/01:30pm -8.5 -21.3 -13.5 67 - ENE 50 56 27 30 975.7 - -
20/01:00pm -9.1 -22.3 -13.7 69 - ENE 52 61 28 33 976.1 976.5 -
20/06:00am -8.4 -13.4 -13.0 69 - NW 9 11 5 6 981.9 - -
20/05:30am -7.7 -12.7 -13.7 62 - NNE 9 13 5 7 982.0 - -
20/05:00am -7.0 -11.6 -13.4 60 - ENE 7 11 4 6 982.3 - -
20/04:30am -6.5 -11.4 -12.6 62 - ENE 9 13 5 7 982.6 - -
20/04:00am -8.8 -13.7 -11.9 78 - WSW 9 15 5 8 983.1 983.6 -
20/03:30am -8.7 -13.6 -12.6 73 - SSE 9 13 5 7 983.5 - -
20/03:00am -8.3 -15.1 -11.9 75 - SE 19 20 10 11 984.1 - -
20/02:30am -8.6 -15.0 -11.4 80 - SSE 17 24 9 13 984.8 - -
20/02:00am -9.2 -16.6 -11.7 82 - S 22 26 12 14 985.5 - -
20/01:30am -9.6 -17.3 -11.8 84 - SSE 24 30 13 16 986.0 - -
20/01:00am -9.3 -16.6 -11.3 85 - SSE 22 26 12 14 986.8 987.2 -
20/12:30am -9.3 -16.6 -11.2 86 - SSE 22 26 12 14 987.5 - -
20/12:00am -9.4 -17.1 -11.2 87 - SE 24 28 13 15 988.0 - -
 
Date/Time
EST
Temp
°C
App
Temp
°C
Dew
Point
Rel
Hum
%
Delta-T
°C
Wind Press
QNH
hPa
Press
MSL
hPa
Rain
since 9 am
mm
Dir
 
Spd
km/h
Gust
km/h
Spd
kts
Gust
kts
19/11:30pm -9.6 -17.7 -11.5 86 - SE 26 28 14 15 988.7 - -
19/11:00pm -9.8 -18.0 -12.4 81 - SE 26 30 14 16 989.2 - -
19/10:30pm -9.9 -16.4 -12.7 80 - SE 17 20 9 11 989.7 - -
19/10:00pm -9.8 -15.5 -13.2 76 - E 13 17 7 9 990.0 990.4 -
19/09:30pm -9.7 -15.8 -12.8 78 - ESE 15 19 8 10 990.5 - -
19/09:00pm -10.6 -18.4 -13.4 80 - E 24 28 13 15 990.8 - -
19/08:30pm -10.9 -17.1 -14.8 73 - E 15 20 8 11 991.2 - -
19/08:00pm -10.2 -16.4 -14.4 71 - E 15 19 8 10 991.4 - -
19/07:30pm -10.4 -17.4 -14.5 72 - ESE 19 24 10 13 991.6 - -
19/07:00pm -10.8 -18.3 -14.7 73 - NE 22 26 12 14 991.6 992.0 -
19/06:30pm -10.4 -17.4 -15.0 69 - N 19 24 10 13 991.6 - -
19/06:00pm -10.4 -18.7 -15.0 69 - NE 26 35 14 19 991.9 - -
19/05:30pm -10.0 -19.4 -14.9 67 - NE 32 35 17 19 992.2 - -
19/05:00pm -10.4 -21.2 -15.5 66 - ENE 39 46 21 25 992.2 - -
19/04:30pm -9.9 -19.0 -14.7 68 - NE 30 35 16 19 992.3 - -
19/04:00pm -10.4 -18.0 -15.1 68 - NNE 22 30 12 16 992.7 993.1 -
19/03:30pm -10.1 -18.8 -15.4 65 - NE 28 35 15 19 992.8 - -
19/03:00pm -10.5 -18.5 -15.6 66 - NNE 24 33 13 18 992.8 - -
19/02:30pm -10.7 -20.2 -16.3 63 - NE 32 35 17 19 993.1 - -
19/02:00pm -10.8 -18.5 -18.0 55 - NE 22 28 12 15 993.6 - -
19/01:30pm -10.4 -15.5 -15.5 66 - NE 9 15 5 8 994.0 - -
19/01:00pm -10.5 -15.0 -14.9 70 - S 6 7 3 4 994.1 994.5 -
19/12:30pm -10.9 -15.6 -14.9 72 - SW 7 11 4 6 994.5 - -
19/12:00pm -10.7 -16.1 -14.7 72 - SSE 11 13 6 7 995.0 - -
19/11:30am -10.6 -17.2 -14.5 73 - SSE 17 19 9 10 995.4 - -
19/11:00am -9.9 -16.5 -14.5 69 - SE 17 19 9 10 996.0 - -
19/10:30am -9.8 -16.0 -14.4 69 - SE 15 19 8 10 996.3 - -
19/10:00am -10.2 -17.7 -14.4 71 - ESE 22 24 12 13 996.7 997.2 -
19/09:30am -10.2 -18.5 -15.1 67 - ESE 26 28 14 15 996.8 - -
19/09:00am -10.2 -18.9 -15.7 64 - ESE 28 30 15 16 996.9 - -
19/08:30am -10.3 -19.8 -15.6 65 - ESE 32 37 17 20 996.8 - -
19/08:00am -10.8 -20.3 -15.7 67 - ESE 32 35 17 19 996.8 - -
19/07:30am -10.8 -19.9 -15.4 69 - ESE 30 33 16 18 996.8 - -
19/07:00am -10.4 -19.8 -14.8 70 - E 32 37 17 20 996.7 997.2 -
19/06:30am -10.6 -20.6 -15.0 70 - E 35 39 19 21 996.4 - -
19/06:00am -10.6 -15.7 -16.2 63 - SSW 9 24 5 13 996.4 - -
19/05:30am -11.5 -18.7 -15.7 71 - SSE 20 33 11 18 996.2 - -
19/05:00am -13.0 -19.7 -16.3 76 - S 17 20 9 11 996.5 - -
19/04:30am -13.2 -19.9 -16.5 76 - S 17 20 9 11 996.4 - -
19/04:00am -13.4 -18.9 -16.7 76 - SSE 11 13 6 7 996.4 996.9 -
19/03:30am -13.2 -17.0 -16.5 76 - N 2 9 1 5 996.0 - -
19/03:00am -13.3 -19.2 -16.1 79 - ENE 13 17 7 9 995.5 - -
19/02:30am -13.4 -20.4 -15.8 82 - NE 19 26 10 14 994.9 - -
19/02:00am -13.7 -20.0 -15.8 84 - NE 15 20 8 11 994.3 - -
19/01:30am -13.6 -19.8 -15.6 85 - NNE 15 20 8 11 993.9 - -
19/01:00am -13.2 -20.2 -15.5 83 - N 19 22 10 12 993.4 993.8 -
19/12:30am -13.3 -18.5 -17.3 72 - NNE 9 13 5 7 993.1 - -
19/12:00am -13.4 -18.0 -17.7 70 - NNE 6 7 3 4 992.9 - -
 
Date/Time
EST
Temp
°C
App
Temp
°C
Dew
Point
Rel
Hum
%
Delta-T
°C
Wind Press
QNH
hPa
Press
MSL
hPa
Rain
since 9 am
mm
Dir
 
Spd
km/h
Gust
km/h
Spd
kts
Gust
kts
18/11:30pm -13.4 -18.6 -17.8 69 - E 9 13 5 7 993.0 - -
18/11:00pm -13.7 -20.4 -17.8 71 - SE 17 19 9 10 992.8 - -
18/10:30pm -13.6 -20.9 -17.5 72 - SE 20 26 11 14 992.5 - -
18/10:00pm -14.0 -22.4 -17.0 78 - SE 26 32 14 17 992.2 992.6 -
18/09:30pm -13.5 -18.3 -17.0 75 - E 7 9 4 5 991.9 - -
18/09:00pm -13.5 -20.2 -16.8 76 - NNE 17 26 9 14 991.0 - -

Other Formats:

Comma delimited format used in spreadsheet applications
http://www.bom.gov.au/fwo/IDT60803/IDT60803.89611.axf

JavaScript Object Notation format (JSON) in row-major order
http://www.bom.gov.au/fwo/IDT60803/IDT60803.89611.json